< < Back
Terminal Aerodrome Forecast


Current Version              Previous Versions:   1  2  3  4  5  6  7  8  9  

Terminal Aerodrome Forecast

288
FTUS42 KFFC 301720
TAFMCN
TAF
KMCN 301720Z 3018/3118 34012G22KT P6SM SKC
     FM302300 34005KT P6SM SKC
     FM310600 VRB03KT P6SM FEW200=

Latest METAR

063
SAUS80 KWBC 302300
MTRMCN
METAR KMCN 302253Z 33010KT 10SM CLR 11/M06 A3026 RMK AO2 SLP247
T01061061


USA.gov is the U.S. government's official web portal to all federal, state and local government web resources and services.